Time;durP1;ratioP1;P1;durP2;ratioP2;P2;SDS_P1;SDS_P2;PMS_P1;PMS_P2;Temp;Humidity;BMP_temperature;BMP_pressure;BME280_temperature;BME280_humidity;BME280_pressure;Samples;Min_cycle;Max_cycle;Signal;HPM_P1;HPM_P2
2023/01/24 00:00:54;;;;;;;17.83;13.77;;;;;;;6.10;54.05;99543.19;5034364;28;20022;-45
2023/01/24 00:03:20;;;;;;;18.33;13.90;;;;;;;6.03;54.45;99549.97;5034334;28;20491;-46
2023/01/24 00:05:47;;;;;;;21.27;14.55;;;;;;;6.05;53.91;99550.63;5034268;28;20083;-46
2023/01/24 00:08:14;;;;;;;20.52;14.82;;;;;;;6.07;54.46;99548.69;5034189;28;20037;-45
2023/01/24 00:10:41;;;;;;;20.05;15.00;;;;;;;6.16;54.24;99549.59;5034191;28;20028;-46
2023/01/24 00:13:09;;;;;;;19.92;15.30;;;;;;;6.27;55.45;99543.31;5034129;28;20369;-46
2023/01/24 00:15:35;;;;;;;20.98;15.57;;;;;;;6.39;55.22;99534.28;5034094;28;20018;-46
2023/01/24 00:18:01;;;;;;;21.50;14.50;;;;;;;6.52;55.14;99541.69;5034017;28;20399;-46
2023/01/24 00:20:26;;;;;;;22.48;15.35;;;;;;;6.58;55.76;99554.97;5016222;28;20067;-46
2023/01/24 00:22:52;;;;;;;22.35;16.48;;;;;;;6.64;55.02;99553.53;5034014;28;20025;-46
2023/01/24 00:25:18;;;;;;;22.50;15.10;;;;;;;6.58;55.55;99556.75;5033913;28;20550;-46
2023/01/24 00:27:44;;;;;;;18.23;13.90;;;;;;;6.56;55.90;99561.28;5033883;28;20418;-45
2023/01/24 00:30:10;;;;;;;19.67;15.85;;;;;;;6.57;54.94;99553.31;5016016;28;20045;-46
2023/01/24 00:32:36;;;;;;;21.90;15.20;;;;;;;6.49;55.02;99565.47;5015963;28;20430;-46
2023/01/24 00:35:02;;;;;;;18.75;14.48;;;;;;;6.48;55.10;99558.63;5033704;28;20033;-46
2023/01/24 00:37:27;;;;;;;20.60;15.43;;;;;;;6.38;55.43;99561.34;5015808;28;20025;-46
2023/01/24 00:39:53;;;;;;;21.13;14.43;;;;;;;6.45;56.03;99559.75;5033673;28;20117;-46
2023/01/24 00:42:19;;;;;;;20.30;15.02;;;;;;;6.60;55.83;99558.25;5033635;28;20514;-46
2023/01/24 00:44:44;;;;;;;20.40;14.88;;;;;;;6.70;54.96;99558.13;5033560;28;20040;-46
2023/01/24 00:47:10;;;;;;;21.08;16.00;;;;;;;6.80;55.67;99556.25;5033528;28;20017;-46
2023/01/24 00:49:36;;;;;;;20.67;15.07;;;;;;;6.93;55.19;99550.59;5015352;28;20059;-46
2023/01/24 00:52:01;;;;;;;28.65;17.90;;;;;;;6.89;55.02;99551.06;5033319;28;20430;-46
2023/01/24 00:54:27;;;;;;;22.65;17.85;;;;;;;6.83;55.34;99541.25;5015593;28;20383;-46
2023/01/24 00:56:52;;;;;;;22.80;17.15;;;;;;;6.74;55.99;99551.63;5033322;28;20040;-46
2023/01/24 00:59:18;;;;;;;26.25;16.25;;;;;;;6.70;56.08;99549.47;5033308;28;20458;-46
2023/01/24 01:01:44;;;;;;;19.17;15.55;;;;;;;6.77;57.09;99555.72;5033249;28;20021;-46
2023/01/24 01:04:10;;;;;;;25.98;16.52;;;;;;;6.78;56.74;99555.56;5015384;28;20033;-46
2023/01/24 01:06:36;;;;;;;21.58;14.90;;;;;;;6.72;56.85;99557.97;5015484;28;20438;-46
2023/01/24 01:09:02;;;;;;;21.48;15.77;;;;;;;6.64;55.40;99557.91;5033104;28;20141;-46
2023/01/24 01:11:28;;;;;;;22.92;15.70;;;;;;;6.37;55.58;99552.69;5033014;28;20044;-46
2023/01/24 01:13:55;;;;;;;21.63;16.65;;;;;;;6.14;55.96;99561.97;5033003;28;20518;-46
2023/01/24 01:16:21;;;;;;;23.88;18.10;;;;;;;5.94;57.32;99556.06;5032965;28;20033;-46
2023/01/24 01:18:48;;;;;;;21.42;15.65;;;;;;;5.72;57.93;99560.72;4998869;28;20151;-46
2023/01/24 01:21:16;;;;;;;21.70;14.50;;;;;;;5.69;57.99;99550.59;5015088;28;20135;-45
2023/01/24 01:23:42;;;;;;;23.02;16.52;;;;;;;5.62;57.08;99556.56;5032871;28;20022;-45
2023/01/24 01:26:12;;;;;;;26.65;17.45;;;;;;;5.42;59.20;99551.44;5015089;28;20048;-46
2023/01/24 01:28:38;;;;;;;21.75;15.43;;;;;;;5.59;60.66;99555.03;5032873;28;20034;-46
2023/01/24 01:31:04;;;;;;;23.80;16.63;;;;;;;5.91;60.72;99548.53;5032696;28;20028;-46
2023/01/24 01:33:29;;;;;;;20.60;15.40;;;;;;;6.18;60.16;99571.13;5032654;28;20030;-46
2023/01/24 01:35:55;;;;;;;21.17;14.70;;;;;;;6.36;58.90;99563.28;5032631;28;20128;-46
2023/01/24 01:38:21;;;;;;;21.10;14.80;;;;;;;6.49;58.16;99566.28;5014695;28;20482;-46
2023/01/24 01:40:46;;;;;;;19.52;14.60;;;;;;;6.69;57.91;99569.53;5014762;28;20030;-46
2023/01/24 01:43:15;;;;;;;18.85;13.98;;;;;;;6.79;56.96;99574.66;5014703;28;20124;-45
2023/01/24 01:45:51;;;;;;;18.70;13.60;;;;;;;6.79;56.95;99567.63;5014625;28;20022;-46
2023/01/24 01:48:37;;;;;;;23.05;16.67;;;;;;;6.76;56.69;99565.34;5032363;28;20053;-46
2023/01/24 01:51:12;;;;;;;32.15;23.67;;;;;;;6.75;56.99;99568.91;5014557;28;20037;-46
2023/01/24 01:53:58;;;;;;;22.30;16.02;;;;;;;6.76;56.62;99580.16;5014647;28;20041;-46
2023/01/24 01:56:34;;;;;;;19.02;13.40;;;;;;;6.81;57.03;99583.13;5032246;28;20029;-46
2023/01/24 01:59:06;;;;;;;19.02;15.45;;;;;;;6.85;56.68;99581.06;5014418;28;20072;-46
2023/01/24 02:01:33;;;;;;;22.00;15.02;;;;;;;6.76;56.93;99573.19;5031734;28;20036;-46
2023/01/24 02:04:14;;;;;;;20.83;13.65;;;;;;;6.78;57.01;99575.59;5032032;28;20026;-46
2023/01/24 02:07:01;;;;;;;21.67;14.95;;;;;;;6.82;56.69;99569.09;5032096;28;20518;-46
2023/01/24 02:09:31;;;;;;;21.75;14.68;;;;;;;6.90;56.88;99578.78;5032106;28;20036;-46
2023/01/24 02:12:01;;;;;;;18.88;14.55;;;;;;;6.87;56.48;99579.91;5031930;28;20030;-46
2023/01/24 02:17:11;;;;;;;19.17;14.23;;;;;;;6.92;56.26;99593.34;5031954;28;20036;-46
2023/01/24 02:19:56;;;;;;;21.48;14.35;;;;;;;6.96;56.20;99610.31;5031915;28;20017;-46
2023/01/24 02:23:04;;;;;;;22.33;14.43;;;;;;;6.96;56.01;99597.28;5014173;28;20063;-46
2023/01/24 02:25:57;;;;;;;21.55;14.23;;;;;;;7.03;56.34;99602.69;4987623;28;20033;-46
2023/01/24 02:28:22;;;;;;;24.42;15.05;;;;;;;7.02;56.20;99601.03;5031851;28;20041;-46
2023/01/24 02:30:48;;;;;;;20.17;14.02;;;;;;;6.99;56.09;99599.56;5031826;28;20560;-46
2023/01/24 02:33:19;;;;;;;23.88;14.88;;;;;;;7.02;55.84;99598.41;5031794;28;20048;-46
2023/01/24 02:35:46;;;;;;;17.83;14.45;;;;;;;6.93;56.35;99594.94;5031729;28;20071;-46
2023/01/24 02:38:17;;;;;;;17.20;14.40;;;;;;;6.88;56.13;99602.44;5013879;28;20033;-46
2023/01/24 02:40:44;;;;;;;23.63;16.05;;;;;;;6.87;56.37;99590.34;5013978;28;20033;-46
2023/01/24 02:43:12;;;;;;;23.17;14.35;;;;;;;6.92;56.28;99595.09;5031648;28;20128;-46
2023/01/24 02:45:38;;;;;;;21.05;15.15;;;;;;;6.87;57.00;99599.97;5031591;28;20080;-46
2023/01/24 02:48:04;;;;;;;17.67;13.80;;;;;;;6.90;57.31;99608.31;5031339;28;20446;-46
2023/01/24 02:53:29;;;;;;;18.23;14.93;;;;;;;7.04;56.50;99611.31;5013891;28;20121;-46
2023/01/24 02:53:32;;;;;;;20.30;14.02;;;;;;;7.08;56.47;99616.06;5031382;28;20498;-46
2023/01/24 02:58:47;;;;;;;23.52;14.95;;;;;;;7.11;56.34;99612.34;5031593;28;20510;-46
2023/01/24 03:01:16;;;;;;;25.00;16.17;;;;;;;7.08;56.25;99608.25;5031492;28;20022;-46
2023/01/24 03:03:43;;;;;;;20.27;14.30;;;;;;;6.99;56.59;99619.63;5014345;28;20029;-46
2023/01/24 03:06:11;;;;;;;23.77;14.88;;;;;;;6.90;56.36;99607.47;5031443;28;20025;-46
2023/01/24 03:08:37;;;;;;;22.20;15.15;;;;;;;6.82;56.41;99608.25;5031462;28;20044;-46
2023/01/24 03:11:04;;;;;;;23.58;14.90;;;;;;;6.83;57.36;99607.28;5013586;28;20026;-46
2023/01/24 03:35:23;;;;;;;21.95;14.98;;;;;;;7.07;56.77;99624.06;5035191;28;20128;-46
2023/01/24 03:40:34;;;;;;;18.77;14.05;;;;;;;7.10;56.97;99632.41;5035069;28;20095;-46
2023/01/24 03:43:00;;;;;;;26.13;14.93;;;;;;;7.25;56.67;99635.28;5016981;28;20029;-46
2023/01/24 03:45:28;;;;;;;20.48;14.50;;;;;;;7.37;56.77;99630.59;5034661;28;20032;-46
2023/01/24 03:48:00;;;;;;;20.52;14.95;;;;;;;7.38;56.36;99630.44;5034741;28;20025;-46
2023/01/24 03:53:23;;;;;;;23.58;14.88;;;;;;;7.23;56.49;99632.00;5034866;28;20043;-46
2023/01/24 03:55:54;;;;;;;20.10;14.73;;;;;;;7.20;56.08;99635.75;5034518;28;20510;-46
2023/01/24 03:58:21;;;;;;;22.95;13.82;;;;;;;7.15;56.56;99645.81;5034404;28;20051;-46
2023/01/24 04:00:47;;;;;;;21.90;14.65;;;;;;;7.15;56.72;99642.38;5034329;28;20526;-46
2023/01/24 04:03:13;;;;;;;22.27;14.75;;;;;;;7.05;56.79;99645.09;5034348;28;20025;-46
2023/01/24 04:05:39;;;;;;;20.88;14.80;;;;;;;7.13;56.68;99641.72;5016493;28;20140;-46
2023/01/24 04:08:05;;;;;;;21.38;14.80;;;;;;;7.21;56.89;99644.38;5034281;28;20151;-46
2023/01/24 04:10:32;;;;;;;23.40;14.75;;;;;;;7.22;56.32;99646.00;5034240;28;20507;-46
2023/01/24 04:12:57;;;;;;;22.55;14.52;;;;;;;7.26;56.62;99647.34;5016383;28;20055;-46
2023/01/24 04:15:26;;;;;;;24.55;15.50;;;;;;;7.26;56.38;99646.53;5034119;28;20021;-46
2023/01/24 04:17:56;;;;;;;22.40;14.77;;;;;;;7.28;56.35;99644.56;5016262;28;20302;-46
2023/01/24 04:20:22;;;;;;;21.30;15.05;;;;;;;7.36;56.40;99655.06;5034041;28;20040;-45
2023/01/24 04:22:48;;;;;;;25.15;15.10;;;;;;;7.36;56.18;99660.28;5016258;28;20022;-46
2023/01/24 04:25:14;;;;;;;23.75;13.82;;;;;;;7.29;56.51;99656.66;5015554;28;20026;-46
2023/01/24 04:27:40;;;;;;;23.42;16.05;;;;;;;7.27;56.80;99654.19;5016166;28;20037;-46
2023/01/24 04:30:09;;;;;;;22.77;14.43;;;;;;;7.28;56.64;99655.00;5016036;28;20026;-46
2023/01/24 04:32:35;;;;;;;25.05;14.85;;;;;;;7.30;57.44;99656.50;5033779;28;20041;-46
2023/01/24 04:35:03;;;;;;;21.10;15.27;;;;;;;7.28;56.72;99655.00;5033728;28;20041;-46
2023/01/24 04:37:29;;;;;;;24.05;15.00;;;;;;;7.22;56.99;99653.84;5033698;28;20083;-46
2023/01/24 04:39:55;;;;;;;21.15;14.48;;;;;;;7.21;57.19;99654.81;5033734;28;20490;-46
2023/01/24 04:42:21;;;;;;;26.67;15.05;;;;;;;7.30;57.32;99664.31;5015792;28;20021;-46
2023/01/24 04:44:47;;;;;;;24.00;14.60;;;;;;;7.28;56.56;99661.06;5015962;28;20495;-46
2023/01/24 04:47:13;;;;;;;25.58;14.40;;;;;;;7.24;56.38;99664.13;5015743;28;20120;-46
2023/01/24 04:49:38;;;;;;;21.77;14.57;;;;;;;7.25;56.53;99673.63;5012229;28;20045;-46
2023/01/24 04:52:04;;;;;;;20.92;15.05;;;;;;;7.26;56.22;99660.38;5012629;28;20037;-46
2023/01/24 04:54:30;;;;;;;21.80;14.75;;;;;;;7.11;56.35;99664.56;5012401;28;20057;-46
2023/01/24 04:56:55;;;;;;;25.20;16.33;;;;;;;6.99;56.33;99659.56;5013526;28;20022;-46
2023/01/24 04:59:21;;;;;;;22.48;14.70;;;;;;;6.88;56.61;99659.84;5012187;28;20029;-46
2023/01/24 05:01:47;;;;;;;21.25;14.70;;;;;;;6.80;56.84;99657.16;5012170;28;20117;-46
2023/01/24 05:04:12;;;;;;;31.15;15.93;;;;;;;6.80;58.13;99659.75;5013445;28;20026;-46
2023/01/24 05:06:38;;;;;;;20.45;15.40;;;;;;;6.93;57.80;99657.59;5013639;28;20017;-46
2023/01/24 05:09:04;;;;;;;23.02;15.23;;;;;;;6.92;57.53;99660.34;5013330;28;20410;-46
2023/01/24 05:11:30;;;;;;;23.92;15.32;;;;;;;6.86;57.70;99656.56;5011990;28;20031;-46
2023/01/24 05:13:55;;;;;;;24.05;16.00;;;;;;;6.85;57.15;99661.94;5013322;28;20104;-46
2023/01/24 05:16:21;;;;;;;20.27;14.85;;;;;;;6.86;58.02;99671.38;5011915;28;20502;-46
2023/01/24 05:18:47;;;;;;;19.63;15.73;;;;;;;6.69;58.67;99670.44;5013200;28;20018;-45
2023/01/24 05:21:15;;;;;;;27.35;14.43;;;;;;;6.65;58.40;99664.72;5011805;28;20599;-46
2023/01/24 05:23:42;;;;;;;21.73;15.73;;;;;;;6.63;58.39;99666.66;5011788;28;20096;-46
2023/01/24 05:26:08;;;;;;;22.83;15.23;;;;;;;6.46;58.55;99668.31;5013039;28;20040;-46
2023/01/24 05:28:34;;;;;;;25.15;15.48;;;;;;;6.26;59.01;99669.41;5011762;28;20438;-46
2023/01/24 05:31:08;;;;;;;22.42;14.63;;;;;;;6.26;59.81;99679.81;5011675;28;20030;-46
2023/01/24 05:33:35;;;;;;;24.73;15.50;;;;;;;6.33;59.38;99686.91;5012989;28;20061;-46
2023/01/24 05:36:21;;;;;;;29.40;17.35;;;;;;;6.30;60.10;99692.44;4995091;28;20499;-46
2023/01/24 05:38:47;;;;;;;23.02;15.90;;;;;;;6.15;58.59;99694.72;5011244;28;20106;-46
2023/01/24 05:41:19;;;;;;;22.58;14.40;;;;;;;6.10;59.24;99701.34;5011506;28;20080;-46
2023/01/24 05:43:45;;;;;;;21.83;15.55;;;;;;;6.14;58.63;99698.28;5011492;28;20030;-46
2023/01/24 05:46:17;;;;;;;20.63;14.95;;;;;;;6.06;59.00;99700.00;5012695;28;20108;-46
2023/01/24 05:48:43;;;;;;;23.38;15.32;;;;;;;6.03;58.61;99706.31;5011180;28;20061;-46
2023/01/24 05:51:11;;;;;;;19.58;15.38;;;;;;;6.12;59.46;99695.03;5011469;28;20022;-46
2023/01/24 05:53:39;;;;;;;26.48;15.65;;;;;;;6.23;59.43;99693.16;5011365;28;20112;-46
2023/01/24 05:56:14;;;;;;;24.42;15.55;;;;;;;6.37;59.34;99708.28;5011260;28;20479;-46
2023/01/24 05:58:42;;;;;;;26.03;16.60;;;;;;;6.46;59.45;99709.19;5012522;28;20030;-46
2023/01/24 06:01:16;;;;;;;28.70;16.45;;;;;;;6.52;59.30;99712.03;5012459;28;20029;-46
2023/01/24 06:03:42;;;;;;;30.00;16.77;;;;;;;6.62;58.74;99718.97;5012534;28;20033;-46
2023/01/24 06:06:11;;;;;;;28.63;20.25;;;;;;;6.50;58.26;99729.63;5011094;28;20131;-46
2023/01/24 06:08:38;;;;;;;31.35;18.98;;;;;;;6.38;58.67;99729.00;5012385;28;20097;-46
2023/01/24 06:11:13;;;;;;;21.90;15.73;;;;;;;6.45;59.25;99737.06;5010997;28;20029;-46
2023/01/24 06:13:38;;;;;;;28.33;16.70;;;;;;;6.59;59.59;99733.94;5011163;28;20033;-46
2023/01/24 06:16:07;;;;;;;23.52;15.93;;;;;;;6.79;58.19;99744.22;5011003;28;20510;-46
2023/01/24 06:18:33;;;;;;;24.95;15.43;;;;;;;6.87;57.93;99746.91;5010949;28;20026;-46
2023/01/24 06:21:06;;;;;;;20.63;16.05;;;;;;;6.80;57.83;99749.31;5010934;28;20113;-46
2023/01/24 06:23:31;;;;;;;23.63;17.58;;;;;;;6.79;58.39;99746.84;5012292;28;20507;-46
2023/01/24 06:25:57;;;;;;;21.48;17.30;;;;;;;6.75;58.14;99740.28;5010870;28;20068;-46
2023/01/24 06:28:23;;;;;;;22.08;14.93;;;;;;;6.76;58.12;99749.72;5010859;28;20032;-46
2023/01/24 06:31:04;;;;;;;25.02;15.95;;;;;;;6.90;58.58;99749.22;5010807;28;20447;-46
2023/01/24 06:33:30;;;;;;;32.97;15.93;;;;;;;7.06;58.60;99750.31;5012094;28;20032;-46
2023/01/24 06:35:56;;;;;;;25.13;16.40;;;;;;;7.20;57.98;99757.59;5012018;28;20022;-46
2023/01/24 06:38:23;;;;;;;32.35;20.23;;;;;;;7.23;57.79;99756.50;5011998;28;20079;-46
2023/01/24 06:40:55;;;;;;;26.38;16.88;;;;;;;7.20;58.13;99757.59;5010713;28;20400;-46
2023/01/24 06:43:21;;;;;;;25.85;15.98;;;;;;;7.29;57.86;99761.13;5012113;28;20080;-46
2023/01/24 06:45:47;;;;;;;27.25;17.33;;;;;;;7.36;58.03;99765.56;5010611;28;20033;-46
2023/01/24 06:48:12;;;;;;;26.38;16.58;;;;;;;7.39;57.66;99773.09;5015122;28;20419;-46
2023/01/24 06:50:38;;;;;;;25.88;15.00;;;;;;;7.42;56.97;99778.97;5022656;28;20419;-46
2023/01/24 06:53:04;;;;;;;32.58;18.02;;;;;;;7.42;57.14;99781.59;5035665;28;20034;-46
2023/01/24 06:55:30;;;;;;;26.27;16.17;;;;;;;7.32;57.38;99785.09;5018028;28;20452;-46
2023/01/24 06:57:58;;;;;;;31.92;17.85;;;;;;;7.25;57.55;99791.09;5017693;28;20057;-46
2023/01/24 07:00:24;;;;;;;26.73;16.17;;;;;;;7.31;57.67;99799.16;5035531;28;20022;-46
2023/01/24 07:03:07;;;;;;;24.55;17.08;;;;;;;7.29;57.83;99788.03;5017705;28;20033;-46
2023/01/24 07:05:34;;;;;;;31.73;17.08;;;;;;;7.32;57.41;99790.31;5017718;28;20063;-46
2023/01/24 07:08:01;;;;;;;31.75;16.80;;;;;;;7.25;57.96;99794.53;5035386;28;20025;-46
2023/01/24 07:10:27;;;;;;;36.97;19.38;;;;;;;7.25;57.74;99802.38;5017561;28;20059;-46
2023/01/24 07:12:52;;;;;;;38.15;17.95;;;;;;;7.24;58.83;99799.91;5035330;28;20025;-46
2023/01/24 07:15:18;;;;;;;37.67;17.58;;;;;;;7.27;58.28;99805.66;5017460;28;20491;-46
2023/01/24 07:17:44;;;;;;;32.05;17.38;;;;;;;7.23;57.90;99814.75;5035169;28;20026;-46
2023/01/24 07:20:12;;;;;;;31.50;16.25;;;;;;;7.31;57.79;99821.84;5035126;28;20151;-46
2023/01/24 07:22:39;;;;;;;32.45;17.48;;;;;;;7.42;58.29;99818.97;5017321;28;20025;-46
2023/01/24 07:25:11;;;;;;;34.47;16.00;;;;;;;7.46;57.41;99815.06;5017244;28;20031;-46
2023/01/24 07:27:36;;;;;;;29.17;16.98;;;;;;;7.31;56.84;99830.47;5017411;28;20025;-46
2023/01/24 07:30:03;;;;;;;42.22;18.02;;;;;;;7.08;56.82;99832.72;5034948;28;20033;-46
2023/01/24 07:32:29;;;;;;;39.35;17.25;;;;;;;6.79;57.41;99838.97;5017133;28;20029;-46
2023/01/24 07:34:55;;;;;;;45.33;18.02;;;;;;;6.69;58.34;99840.81;5017084;28;20025;-46
2023/01/24 07:37:22;;;;;;;28.42;15.85;;;;;;;6.73;58.30;99844.78;5034732;28;20032;-46
2023/01/24 07:39:49;;;;;;;35.03;15.85;;;;;;;6.85;58.53;99858.44;5035065;28;20052;-46
2023/01/24 07:42:14;;;;;;;26.75;15.63;;;;;;;6.97;58.11;99866.88;5034728;28;20095;-46
2023/01/24 07:44:40;;;;;;;29.10;15.98;;;;;;;7.05;57.66;99868.75;5034744;28;20491;-46
2023/01/24 07:47:06;;;;;;;44.80;18.00;;;;;;;6.94;57.82;99861.94;5034662;28;20394;-46
2023/01/24 07:49:31;;;;;;;27.60;16.52;;;;;;;7.00;58.12;99866.56;5034352;28;20038;-46
2023/01/24 07:51:57;;;;;;;27.27;16.40;;;;;;;7.03;58.33;99861.06;5016809;28;20068;-46
2023/01/24 07:54:23;;;;;;;33.25;17.70;;;;;;;6.75;57.35;99862.91;5000409;28;20029;-46
2023/01/24 07:56:48;;;;;;;30.13;16.08;;;;;;;6.61;58.98;99869.41;5016646;28;20022;-46
2023/01/24 07:59:14;;;;;;;32.80;16.15;;;;;;;6.69;59.09;99871.31;5016206;28;20124;-46
2023/01/24 08:01:40;;;;;;;28.48;17.17;;;;;;;6.75;58.44;99873.34;5033821;28;20095;-46
2023/01/24 08:04:06;;;;;;;23.80;15.82;;;;;;;6.68;58.34;99870.50;5034294;28;20021;-46
2023/01/24 08:06:31;;;;;;;32.08;16.77;;;;;;;6.79;58.65;99885.13;5016529;28;20017;-46
2023/01/24 08:08:57;;;;;;;35.90;16.13;;;;;;;7.25;58.73;99882.50;5034316;28;20034;-46
2023/01/24 08:11:23;;;;;;;51.15;16.58;;;;;;;7.61;57.00;99880.69;5016473;28;20523;-46
2023/01/24 08:13:50;;;;;;;30.10;15.23;;;;;;;7.56;57.49;99880.28;5016450;28;20453;-46
2023/01/24 08:16:15;;;;;;;31.00;16.73;;;;;;;7.62;56.96;99886.72;5034054;28;20024;-46
2023/01/24 08:18:43;;;;;;;26.90;15.45;;;;;;;7.51;56.86;99888.59;5034061;28;20116;-46
2023/01/24 08:21:09;;;;;;;28.33;16.33;;;;;;;7.38;57.54;99890.75;5034022;28;20018;-46
2023/01/24 08:23:35;;;;;;;40.38;15.65;;;;;;;7.57;57.86;99892.41;5034007;28;20380;-46
2023/01/24 08:26:01;;;;;;;31.75;16.27;;;;;;;8.12;56.88;99899.16;5033951;28;20116;-46
2023/01/24 08:28:27;;;;;;;38.00;17.98;;;;;;;8.41;55.95;99898.88;5033905;28;20099;-46
2023/01/24 08:30:53;;;;;;;24.50;16.17;;;;;;;8.90;55.26;99901.66;5034155;28;20491;-46
2023/01/24 08:33:19;;;;;;;31.77;15.45;;;;;;;9.61;54.05;99902.09;5016040;28;20071;-46
2023/01/24 08:35:46;;;;;;;24.55;15.20;;;;;;;10.29;52.02;99894.78;5015988;28;20025;-46
2023/01/24 08:38:12;;;;;;;22.30;15.52;;;;;;;10.75;50.20;99901.03;5015946;28;20029;-46
2023/01/24 08:40:38;;;;;;;30.10;16.17;;;;;;;11.11;49.81;99908.41;5034013;28;20022;-46
2023/01/24 08:43:04;;;;;;;21.30;16.30;;;;;;;11.55;48.64;99897.25;5015828;28;20037;-47
2023/01/24 08:45:30;;;;;;;25.75;16.75;;;;;;;12.02;47.92;99905.91;5033623;28;20052;-46
2023/01/24 08:47:56;;;;;;;26.55;17.25;;;;;;;11.86;47.06;99901.59;5033540;28;20167;-47
2023/01/24 08:50:22;;;;;;;23.60;18.48;;;;;;;11.54;47.83;99910.56;5033255;28;20128;-46
2023/01/24 08:52:48;;;;;;;32.03;17.25;;;;;;;11.28;47.79;99898.59;5015658;28;20049;-47
2023/01/24 08:55:15;;;;;;;19.05;16.25;;;;;;;11.16;47.77;99889.47;5033393;28;20063;-46
2023/01/24 08:57:41;;;;;;;24.50;20.70;;;;;;;11.24;48.28;99891.25;5033255;28;20513;-47
2023/01/24 09:00:07;;;;;;;28.45;18.40;;;;;;;11.58;47.56;99898.72;5015498;28;20034;-46
2023/01/24 09:02:36;;;;;;;25.52;18.52;;;;;;;11.84;46.76;99900.13;5033309;28;20064;-47
2023/01/24 09:05:04;;;;;;;23.52;17.00;;;;;;;11.87;46.29;99912.91;5033429;28;20469;-47
2023/01/24 09:07:29;;;;;;;22.13;16.60;;;;;;;11.98;45.83;99909.91;5015397;28;20024;-46
2023/01/24 09:09:56;;;;;;;25.75;17.17;;;;;;;13.00;44.94;99909.22;4999064;28;20025;-46
2023/01/24 09:12:21;;;;;;;20.13;15.52;;;;;;;14.11;42.68;99914.09;5015183;28;20032;-46
2023/01/24 09:14:47;;;;;;;23.70;16.98;;;;;;;14.56;40.66;99902.19;4998974;28;20025;-46
2023/01/24 09:17:13;;;;;;;23.23;16.10;;;;;;;14.88;40.60;99914.94;5015090;28;20483;-47
2023/01/24 09:19:38;;;;;;;25.27;15.77;;;;;;;15.02;38.60;99921.88;5033001;28;20040;-47
2023/01/24 09:22:04;;;;;;;22.52;15.35;;;;;;;14.84;39.45;99925.06;5032853;28;20064;-46
2023/01/24 09:24:30;;;;;;;24.75;15.57;;;;;;;15.34;39.68;99914.22;5032907;28;20418;-46
2023/01/24 09:26:55;;;;;;;21.33;14.52;;;;;;;16.29;38.12;99911.38;5032804;28;20030;-44
2023/01/24 09:29:21;;;;;;;23.08;15.98;;;;;;;16.73;37.20;99915.13;5014951;28;20150;-44
2023/01/24 09:31:48;;;;;;;20.95;15.25;;;;;;;17.02;36.12;99913.78;5032718;28;20101;-44
2023/01/24 09:34:14;;;;;;;22.48;16.25;;;;;;;16.76;34.68;99907.56;5014921;28;20384;-44
2023/01/24 09:36:40;;;;;;;22.67;15.25;;;;;;;16.29;36.26;99921.97;5014873;28;20017;-44
2023/01/24 09:39:05;;;;;;;25.17;15.77;;;;;;;15.81;36.57;99933.63;5014787;28;20032;-44
2023/01/24 09:41:46;;;;;;;29.52;16.17;;;;;;;15.54;37.41;99935.44;5014769;28;20426;-45
2023/01/24 09:44:42;;;;;;;22.55;15.90;;;;;;;15.24;37.51;99932.31;5032587;28;20029;-44
2023/01/24 09:47:18;;;;;;;24.77;17.52;;;;;;;15.12;37.24;99940.03;5014725;28;20034;-44
2023/01/24 09:49:50;;;;;;;21.80;16.35;;;;;;;14.90;37.75;99942.78;5014388;28;20045;-44
2023/01/24 09:52:27;;;;;;;32.22;20.65;;;;;;;15.68;37.30;99933.63;5015197;28;20041;-44
2023/01/24 09:55:19;;;;;;;29.38;18.73;;;;;;;15.92;36.46;99940.16;5032276;28;20033;-44
2023/01/24 09:57:54;;;;;;;43.25;26.45;;;;;;;16.38;35.97;99936.66;5032197;28;20029;-44
2023/01/24 10:00:29;;;;;;;49.80;30.88;;;;;;;16.16;35.46;99947.47;5032550;28;20473;-44
2023/01/24 10:02:58;;;;;;;24.90;18.40;;;;;;;15.85;35.59;99944.63;5014428;28;20025;-44
2023/01/24 10:05:32;;;;;;;24.60;16.50;;;;;;;15.59;35.69;99948.84;5032169;28;20029;-44
2023/01/24 10:08:12;;;;;;;28.15;16.73;;;;;;;14.81;36.52;99953.72;5014628;28;20125;-44
2023/01/24 10:10:56;;;;;;;27.45;17.45;;;;;;;13.94;37.94;99953.16;5014307;28;20108;-44
2023/01/24 10:13:39;;;;;;;28.55;18.00;;;;;;;13.17;38.80;99960.69;5032010;28;20096;-44
2023/01/24 10:16:33;;;;;;;1721.22;999.90;;;;;;;12.37;40.77;99964.13;5014235;28;20087;-44
2023/01/24 10:19:26;;;;;;;278.30;173.13;;;;;;;11.62;41.86;99967.53;5015807;28;20519;-46
2023/01/24 10:22:04;;;;;;;119.40;58.92;;;;;;;11.14;43.49;99965.03;5031875;28;20446;-46
2023/01/24 10:24:38;;;;;;;78.95;47.60;;;;;;;11.09;44.17;99964.75;5013683;28;20061;-46
2023/01/24 10:27:32;;;;;;;69.55;34.60;;;;;;;11.12;44.21;99954.69;5031847;28;20057;-46
2023/01/24 10:30:02;;;;;;;40.28;30.98;;;;;;;11.05;43.60;99959.00;5031798;28;20021;-46
2023/01/24 10:32:33;;;;;;;46.47;26.65;;;;;;;10.94;44.20;99956.75;5031906;28;20029;-46
2023/01/24 10:35:12;;;;;;;40.83;23.48;;;;;;;10.89;44.51;99945.97;5013991;28;20091;-46
2023/01/24 10:37:43;;;;;;;35.78;23.88;;;;;;;10.80;44.69;99960.91;5014041;28;20069;-46
2023/01/24 10:40:14;;;;;;;37.55;22.15;;;;;;;10.83;45.30;99949.28;5031752;28;20453;-46
2023/01/24 10:42:40;;;;;;;28.98;19.50;;;;;;;11.13;44.73;99956.34;5031674;28;20025;-46
2023/01/24 10:45:43;;;;;;;27.50;18.27;;;;;;;12.77;43.20;99948.88;5013933;28;20028;-46
2023/01/24 10:48:28;;;;;;;28.50;18.50;;;;;;;13.83;40.76;99949.22;5031644;28;20014;-46
2023/01/24 10:50:54;;;;;;;26.70;18.13;;;;;;;14.41;38.48;99942.91;5031304;28;20046;-47
2023/01/24 10:53:26;;;;;;;26.80;17.27;;;;;;;14.35;37.99;99947.97;5031595;28;20026;-46
2023/01/24 10:56:03;;;;;;;30.30;21.88;;;;;;;13.54;38.07;99960.69;5031540;28;20430;-47
2023/01/24 10:58:41;;;;;;;29.58;21.23;;;;;;;12.76;39.61;99965.69;5031692;28;20030;-46
2023/01/24 11:01:31;;;;;;;24.83;17.02;;;;;;;12.50;40.37;99961.69;5013794;28;20025;-46
2023/01/24 11:03:57;;;;;;;21.63;16.13;;;;;;;12.49;40.38;99956.59;5031581;28;20029;-46
2023/01/24 11:06:32;;;;;;;26.35;16.35;;;;;;;12.33;40.39;99957.56;5013774;28;20025;-46
2023/01/24 11:09:09;;;;;;;22.42;17.15;;;;;;;12.16;40.34;99956.94;5031586;28;20029;-46
2023/01/24 11:11:42;;;;;;;31.17;16.90;;;;;;;11.71;41.46;99962.06;5031523;28;20051;-47
2023/01/24 11:14:13;;;;;;;22.95;17.30;;;;;;;11.30;41.64;99951.00;5014235;28;20029;-47
2023/01/24 11:16:50;;;;;;;30.58;17.05;;;;;;;11.03;42.92;99966.25;5013760;28;20517;-46
2023/01/24 11:19:35;;;;;;;32.10;17.00;;;;;;;11.06;43.28;99967.69;4997301;28;20084;-46
2023/01/24 11:25:14;;;;;;;25.42;16.25;;;;;;;10.57;43.35;99968.72;4970662;28;20070;-48
2023/01/24 11:27:49;;;;;;;25.50;17.67;;;;;;;10.13;43.87;99969.91;4954253;28;20035;-49
2023/01/24 11:30:21;;;;;;;20.65;15.57;;;;;;;10.22;44.55;99968.06;4970390;28;20039;-49
2023/01/24 11:33:05;;;;;;;23.35;16.25;;;;;;;10.50;44.12;99960.69;4970417;28;20062;-49
2023/01/24 11:35:37;;;;;;;22.02;16.40;;;;;;;10.79;43.70;99957.47;4971618;28;20034;-49
2023/01/24 11:38:20;;;;;;;31.30;16.85;;;;;;;10.49;43.50;99961.69;4957589;28;20029;-48
2023/01/24 11:44:34;;;;;;;26.23;16.88;;;;;;;10.27;45.85;99947.44;4974118;28;20077;-47
2023/01/24 11:47:15;;;;;;;27.75;17.27;;;;;;;10.55;45.75;99950.50;4967348;28;20058;-46
2023/01/24 11:50:17;;;;;;;25.10;17.50;;;;;;;10.73;45.20;99947.66;4957213;28;20049;-46
2023/01/24 11:53:10;;;;;;;19.50;15.10;;;;;;;10.88;44.56;99934.63;4973628;28;20125;-46
2023/01/24 11:55:50;;;;;;;27.38;16.30;;;;;;;10.77;44.26;99933.19;4973494;28;20101;-47
2023/01/24 11:58:39;;;;;;;26.17;16.77;;;;;;;10.64;44.28;99921.59;4973554;28;20484;-46
2023/01/24 12:01:22;;;;;;;22.17;15.73;;;;;;;10.48;45.08;99932.97;4974254;28;20069;-48
2023/01/24 12:04:05;;;;;;;26.63;16.40;;;;;;;10.31;45.70;99934.81;5013368;28;20085;-48
2023/01/24 12:07:02;;;;;;;28.45;16.85;;;;;;;10.19;45.23;99932.50;5014651;28;20091;-48
2023/01/24 12:09:45;;;;;;;19.20;14.98;;;;;;;10.35;45.21;99923.00;4970808;28;20045;-49
2023/01/24 12:12:14;;;;;;;24.25;16.25;;;;;;;10.52;44.92;99911.47;5013384;28;20029;-48
2023/01/24 12:14:59;;;;;;;44.92;17.90;;;;;;;10.58;44.26;99923.94;5014716;28;20591;-48